sensor_id;sensor_type;location;lat;lon;timestamp;P1;durP1;ratioP1;P2;durP2;ratioP2
6463;SDS011;3265;42.694;23.282;2023-02-03T00:00:56;10.17;;;5.53;;
6463;SDS011;3265;42.694;23.282;2023-02-03T00:03:23;9.33;;;5.90;;
6463;SDS011;3265;42.694;23.282;2023-02-03T00:05:50;9.27;;;5.70;;
6463;SDS011;3265;42.694;23.282;2023-02-03T00:08:17;11.33;;;6.43;;
6463;SDS011;3265;42.694;23.282;2023-02-03T00:10:45;11.20;;;6.37;;
6463;SDS011;3265;42.694;23.282;2023-02-03T00:13:13;11.27;;;5.73;;
6463;SDS011;3265;42.694;23.282;2023-02-03T00:15:40;10.30;;;6.03;;
6463;SDS011;3265;42.694;23.282;2023-02-03T00:18:07;12.77;;;6.87;;
6463;SDS011;3265;42.694;23.282;2023-02-03T00:20:33;10.57;;;6.30;;
6463;SDS011;3265;42.694;23.282;2023-02-03T00:23:03;9.27;;;5.60;;
6463;SDS011;3265;42.694;23.282;2023-02-03T00:25:31;12.47;;;6.13;;
6463;SDS011;3265;42.694;23.282;2023-02-03T00:27:58;13.10;;;6.23;;
6463;SDS011;3265;42.694;23.282;2023-02-03T00:30:26;11.70;;;6.33;;
6463;SDS011;3265;42.694;23.282;2023-02-03T00:32:53;10.30;;;5.70;;
6463;SDS011;3265;42.694;23.282;2023-02-03T00:35:20;10.77;;;6.10;;
6463;SDS011;3265;42.694;23.282;2023-02-03T00:37:49;12.43;;;6.20;;
6463;SDS011;3265;42.694;23.282;2023-02-03T00:40:17;9.70;;;6.13;;
6463;SDS011;3265;42.694;23.282;2023-02-03T00:42:44;11.13;;;6.30;;
6463;SDS011;3265;42.694;23.282;2023-02-03T00:45:10;13.37;;;6.57;;
6463;SDS011;3265;42.694;23.282;2023-02-03T00:47:38;14.97;;;7.07;;
6463;SDS011;3265;42.694;23.282;2023-02-03T00:50:05;15.13;;;7.43;;
6463;SDS011;3265;42.694;23.282;2023-02-03T00:52:33;13.90;;;7.20;;
6463;SDS011;3265;42.694;23.282;2023-02-03T00:55:00;12.10;;;6.70;;
6463;SDS011;3265;42.694;23.282;2023-02-03T00:57:27;11.20;;;6.30;;
6463;SDS011;3265;42.694;23.282;2023-02-03T00:59:54;12.13;;;6.30;;
6463;SDS011;3265;42.694;23.282;2023-02-03T01:02:22;12.13;;;6.47;;
6463;SDS011;3265;42.694;23.282;2023-02-03T01:04:50;12.97;;;6.63;;
6463;SDS011;3265;42.694;23.282;2023-02-03T01:07:17;17.23;;;6.60;;
6463;SDS011;3265;42.694;23.282;2023-02-03T01:09:44;10.00;;;6.10;;
6463;SDS011;3265;42.694;23.282;2023-02-03T01:12:10;8.87;;;5.60;;
6463;SDS011;3265;42.694;23.282;2023-02-03T01:14:37;6.90;;;5.23;;
6463;SDS011;3265;42.694;23.282;2023-02-03T01:17:04;8.30;;;5.70;;
6463;SDS011;3265;42.694;23.282;2023-02-03T01:19:31;8.63;;;5.50;;
6463;SDS011;3265;42.694;23.282;2023-02-03T01:21:59;8.77;;;5.10;;
6463;SDS011;3265;42.694;23.282;2023-02-03T01:24:26;8.30;;;4.90;;
6463;SDS011;3265;42.694;23.282;2023-02-03T01:26:54;10.10;;;5.63;;
6463;SDS011;3265;42.694;23.282;2023-02-03T01:29:21;7.33;;;4.30;;
6463;SDS011;3265;42.694;23.282;2023-02-03T01:31:48;9.83;;;5.03;;
6463;SDS011;3265;42.694;23.282;2023-02-03T01:34:15;7.70;;;4.30;;
6463;SDS011;3265;42.694;23.282;2023-02-03T01:36:42;8.73;;;5.27;;
6463;SDS011;3265;42.694;23.282;2023-02-03T01:39:12;7.57;;;4.57;;
6463;SDS011;3265;42.694;23.282;2023-02-03T01:41:39;5.83;;;3.97;;
6463;SDS011;3265;42.694;23.282;2023-02-03T01:47:04;7.73;;;4.03;;
6463;SDS011;3265;42.694;23.282;2023-02-03T01:49:41;8.13;;;4.20;;
6463;SDS011;3265;42.694;23.282;2023-02-03T01:52:13;4.67;;;3.53;;
6463;SDS011;3265;42.694;23.282;2023-02-03T01:54:43;9.00;;;3.80;;
6463;SDS011;3265;42.694;23.282;2023-02-03T01:57:14;5.40;;;3.63;;
6463;SDS011;3265;42.694;23.282;2023-02-03T01:59:44;5.50;;;3.80;;
6463;SDS011;3265;42.694;23.282;2023-02-03T02:02:12;8.60;;;3.57;;
6463;SDS011;3265;42.694;23.282;2023-02-03T02:04:42;7.07;;;4.07;;
6463;SDS011;3265;42.694;23.282;2023-02-03T02:07:16;8.23;;;4.20;;
6463;SDS011;3265;42.694;23.282;2023-02-03T02:09:44;7.63;;;3.67;;
6463;SDS011;3265;42.694;23.282;2023-02-03T02:12:12;10.30;;;4.00;;
6463;SDS011;3265;42.694;23.282;2023-02-03T02:14:39;8.47;;;4.53;;
6463;SDS011;3265;42.694;23.282;2023-02-03T02:17:09;6.40;;;3.70;;
6463;SDS011;3265;42.694;23.282;2023-02-03T02:19:57;7.53;;;4.13;;
6463;SDS011;3265;42.694;23.282;2023-02-03T02:23:00;8.83;;;4.50;;
6463;SDS011;3265;42.694;23.282;2023-02-03T02:25:54;10.27;;;5.10;;
6463;SDS011;3265;42.694;23.282;2023-02-03T02:28:42;6.33;;;4.20;;
6463;SDS011;3265;42.694;23.282;2023-02-03T02:34:23;7.37;;;4.50;;
6463;SDS011;3265;42.694;23.282;2023-02-03T02:37:05;8.63;;;4.70;;
6463;SDS011;3265;42.694;23.282;2023-02-03T02:39:39;8.93;;;4.67;;
6463;SDS011;3265;42.694;23.282;2023-02-03T02:42:13;9.07;;;4.83;;
6463;SDS011;3265;42.694;23.282;2023-02-03T02:44:45;7.63;;;4.60;;
6463;SDS011;3265;42.694;23.282;2023-02-03T02:47:18;7.23;;;4.83;;
6463;SDS011;3265;42.694;23.282;2023-02-03T02:49:47;6.33;;;4.73;;
6463;SDS011;3265;42.694;23.282;2023-02-03T02:52:20;6.73;;;4.90;;
6463;SDS011;3265;42.694;23.282;2023-02-03T02:54:50;6.77;;;4.70;;
6463;SDS011;3265;42.694;23.282;2023-02-03T02:57:20;7.10;;;5.30;;
6463;SDS011;3265;42.694;23.282;2023-02-03T02:59:52;8.80;;;5.50;;
6463;SDS011;3265;42.694;23.282;2023-02-03T03:02:20;5.23;;;3.87;;
6463;SDS011;3265;42.694;23.282;2023-02-03T03:04:47;6.27;;;4.30;;
6463;SDS011;3265;42.694;23.282;2023-02-03T03:07:17;6.17;;;4.27;;
6463;SDS011;3265;42.694;23.282;2023-02-03T03:09:49;8.73;;;5.13;;
6463;SDS011;3265;42.694;23.282;2023-02-03T03:12:19;6.77;;;4.23;;
6463;SDS011;3265;42.694;23.282;2023-02-03T03:14:49;7.23;;;4.70;;
6463;SDS011;3265;42.694;23.282;2023-02-03T03:17:22;5.80;;;3.97;;
6463;SDS011;3265;42.694;23.282;2023-02-03T03:19:55;8.17;;;5.07;;
6463;SDS011;3265;42.694;23.282;2023-02-03T03:22:26;6.13;;;4.50;;
6463;SDS011;3265;42.694;23.282;2023-02-03T03:24:59;9.87;;;4.83;;
6463;SDS011;3265;42.694;23.282;2023-02-03T03:27:29;6.37;;;4.43;;
6463;SDS011;3265;42.694;23.282;2023-02-03T03:30:00;9.93;;;4.70;;
6463;SDS011;3265;42.694;23.282;2023-02-03T03:32:32;5.23;;;4.20;;
6463;SDS011;3265;42.694;23.282;2023-02-03T03:34:59;6.27;;;4.30;;
6463;SDS011;3265;42.694;23.282;2023-02-03T03:37:30;5.23;;;4.30;;
6463;SDS011;3265;42.694;23.282;2023-02-03T03:40:02;6.27;;;4.13;;
6463;SDS011;3265;42.694;23.282;2023-02-03T03:42:37;5.13;;;3.90;;
6463;SDS011;3265;42.694;23.282;2023-02-03T03:45:12;5.53;;;4.20;;
6463;SDS011;3265;42.694;23.282;2023-02-03T03:47:48;4.30;;;3.53;;
6463;SDS011;3265;42.694;23.282;2023-02-03T03:50:20;8.70;;;4.23;;
6463;SDS011;3265;42.694;23.282;2023-02-03T03:52:50;5.23;;;4.03;;
6463;SDS011;3265;42.694;23.282;2023-02-03T03:55:18;4.17;;;3.70;;
6463;SDS011;3265;42.694;23.282;2023-02-03T03:57:47;7.97;;;4.20;;
6463;SDS011;3265;42.694;23.282;2023-02-03T04:00:20;5.00;;;3.90;;
6463;SDS011;3265;42.694;23.282;2023-02-03T04:02:52;7.37;;;4.53;;
6463;SDS011;3265;42.694;23.282;2023-02-03T04:05:22;6.47;;;4.70;;
6463;SDS011;3265;42.694;23.282;2023-02-03T04:07:49;10.50;;;4.33;;
6463;SDS011;3265;42.694;23.282;2023-02-03T04:10:21;8.67;;;4.27;;
6463;SDS011;3265;42.694;23.282;2023-02-03T04:12:55;9.30;;;4.23;;
6463;SDS011;3265;42.694;23.282;2023-02-03T04:15:21;5.10;;;4.20;;
6463;SDS011;3265;42.694;23.282;2023-02-03T04:17:49;5.43;;;4.07;;
6463;SDS011;3265;42.694;23.282;2023-02-03T04:20:17;5.77;;;4.20;;
6463;SDS011;3265;42.694;23.282;2023-02-03T04:22:44;4.53;;;3.50;;
6463;SDS011;3265;42.694;23.282;2023-02-03T04:25:11;6.33;;;4.40;;
6463;SDS011;3265;42.694;23.282;2023-02-03T04:27:38;6.80;;;4.10;;
6463;SDS011;3265;42.694;23.282;2023-02-03T04:30:05;5.97;;;4.23;;
6463;SDS011;3265;42.694;23.282;2023-02-03T04:32:33;5.67;;;3.93;;
6463;SDS011;3265;42.694;23.282;2023-02-03T04:35:00;5.90;;;4.30;;
6463;SDS011;3265;42.694;23.282;2023-02-03T04:37:29;5.57;;;3.83;;
6463;SDS011;3265;42.694;23.282;2023-02-03T04:39:55;5.67;;;3.80;;
6463;SDS011;3265;42.694;23.282;2023-02-03T04:42:23;5.17;;;3.70;;
6463;SDS011;3265;42.694;23.282;2023-02-03T04:44:50;6.20;;;4.00;;
6463;SDS011;3265;42.694;23.282;2023-02-03T04:47:17;4.57;;;3.50;;
6463;SDS011;3265;42.694;23.282;2023-02-03T04:49:44;4.97;;;3.97;;
6463;SDS011;3265;42.694;23.282;2023-02-03T04:52:11;6.73;;;4.40;;
6463;SDS011;3265;42.694;23.282;2023-02-03T04:54:41;5.83;;;4.13;;
6463;SDS011;3265;42.694;23.282;2023-02-03T04:57:07;6.37;;;4.43;;
6463;SDS011;3265;42.694;23.282;2023-02-03T04:59:34;6.43;;;4.43;;
6463;SDS011;3265;42.694;23.282;2023-02-03T05:02:01;5.40;;;4.03;;
6463;SDS011;3265;42.694;23.282;2023-02-03T05:04:28;5.37;;;4.00;;
6463;SDS011;3265;42.694;23.282;2023-02-03T05:06:55;7.20;;;4.23;;
6463;SDS011;3265;42.694;23.282;2023-02-03T05:09:22;9.03;;;5.03;;
6463;SDS011;3265;42.694;23.282;2023-02-03T05:11:50;7.33;;;3.90;;
6463;SDS011;3265;42.694;23.282;2023-02-03T05:14:17;6.03;;;4.20;;
6463;SDS011;3265;42.694;23.282;2023-02-03T05:16:45;7.37;;;4.43;;
6463;SDS011;3265;42.694;23.282;2023-02-03T05:19:12;5.87;;;4.63;;
6463;SDS011;3265;42.694;23.282;2023-02-03T05:21:39;7.73;;;5.40;;
6463;SDS011;3265;42.694;23.282;2023-02-03T05:24:06;6.73;;;4.70;;
6463;SDS011;3265;42.694;23.282;2023-02-03T05:26:33;9.47;;;5.30;;
6463;SDS011;3265;42.694;23.282;2023-02-03T05:29:02;6.57;;;4.77;;
6463;SDS011;3265;42.694;23.282;2023-02-03T05:31:29;9.03;;;5.27;;
6463;SDS011;3265;42.694;23.282;2023-02-03T05:33:57;5.27;;;4.37;;
6463;SDS011;3265;42.694;23.282;2023-02-03T05:36:24;7.17;;;5.50;;
6463;SDS011;3265;42.694;23.282;2023-02-03T05:38:51;6.17;;;5.10;;
6463;SDS011;3265;42.694;23.282;2023-02-03T05:41:17;6.80;;;5.30;;
6463;SDS011;3265;42.694;23.282;2023-02-03T05:44:03;9.37;;;5.77;;
6463;SDS011;3265;42.694;23.282;2023-02-03T05:46:30;8.93;;;5.47;;
6463;SDS011;3265;42.694;23.282;2023-02-03T05:48:57;9.27;;;6.70;;
6463;SDS011;3265;42.694;23.282;2023-02-03T05:51:24;8.67;;;5.87;;
6463;SDS011;3265;42.694;23.282;2023-02-03T05:53:50;7.23;;;5.77;;
6463;SDS011;3265;42.694;23.282;2023-02-03T05:56:18;8.17;;;5.57;;
6463;SDS011;3265;42.694;23.282;2023-02-03T05:58:45;8.90;;;5.97;;
6463;SDS011;3265;42.694;23.282;2023-02-03T06:01:13;7.37;;;5.20;;
6463;SDS011;3265;42.694;23.282;2023-02-03T06:03:39;6.47;;;5.00;;
6463;SDS011;3265;42.694;23.282;2023-02-03T06:06:09;9.53;;;5.83;;
6463;SDS011;3265;42.694;23.282;2023-02-03T06:08:35;5.57;;;4.50;;
6463;SDS011;3265;42.694;23.282;2023-02-03T06:11:02;7.00;;;5.13;;
6463;SDS011;3265;42.694;23.282;2023-02-03T06:13:29;5.73;;;4.43;;
6463;SDS011;3265;42.694;23.282;2023-02-03T06:15:56;10.13;;;5.80;;
6463;SDS011;3265;42.694;23.282;2023-02-03T06:18:24;11.50;;;6.70;;
6463;SDS011;3265;42.694;23.282;2023-02-03T06:20:51;11.80;;;7.10;;
6463;SDS011;3265;42.694;23.282;2023-02-03T06:23:17;10.10;;;6.20;;
6463;SDS011;3265;42.694;23.282;2023-02-03T06:25:44;9.83;;;7.00;;
6463;SDS011;3265;42.694;23.282;2023-02-03T06:28:14;9.77;;;5.73;;
6463;SDS011;3265;42.694;23.282;2023-02-03T06:30:40;12.37;;;7.80;;
6463;SDS011;3265;42.694;23.282;2023-02-03T06:33:07;11.33;;;7.87;;
6463;SDS011;3265;42.694;23.282;2023-02-03T06:35:36;10.77;;;6.80;;
6463;SDS011;3265;42.694;23.282;2023-02-03T06:38:02;9.77;;;7.23;;
6463;SDS011;3265;42.694;23.282;2023-02-03T06:40:29;9.67;;;5.97;;
6463;SDS011;3265;42.694;23.282;2023-02-03T06:42:56;12.83;;;7.60;;
6463;SDS011;3265;42.694;23.282;2023-02-03T06:45:23;8.83;;;6.27;;
6463;SDS011;3265;42.694;23.282;2023-02-03T06:47:50;12.97;;;8.03;;
6463;SDS011;3265;42.694;23.282;2023-02-03T06:50:17;14.40;;;8.93;;
6463;SDS011;3265;42.694;23.282;2023-02-03T06:52:45;13.30;;;7.30;;
6463;SDS011;3265;42.694;23.282;2023-02-03T06:55:14;11.17;;;6.30;;
6463;SDS011;3265;42.694;23.282;2023-02-03T06:57:42;7.87;;;6.10;;
6463;SDS011;3265;42.694;23.282;2023-02-03T07:00:10;10.33;;;6.43;;
6463;SDS011;3265;42.694;23.282;2023-02-03T07:02:38;11.97;;;7.40;;
6463;SDS011;3265;42.694;23.282;2023-02-03T07:05:05;14.20;;;7.90;;
6463;SDS011;3265;42.694;23.282;2023-02-03T07:07:33;11.70;;;7.20;;
6463;SDS011;3265;42.694;23.282;2023-02-03T07:10:01;12.73;;;6.77;;
6463;SDS011;3265;42.694;23.282;2023-02-03T07:12:28;10.30;;;7.77;;
6463;SDS011;3265;42.694;23.282;2023-02-03T07:14:56;9.97;;;6.23;;
6463;SDS011;3265;42.694;23.282;2023-02-03T07:17:23;7.77;;;5.13;;
6463;SDS011;3265;42.694;23.282;2023-02-03T07:19:50;11.77;;;6.80;;
6463;SDS011;3265;42.694;23.282;2023-02-03T07:22:16;12.70;;;8.00;;
6463;SDS011;3265;42.694;23.282;2023-02-03T07:24:43;8.30;;;5.83;;
6463;SDS011;3265;42.694;23.282;2023-02-03T07:27:12;12.77;;;7.30;;
6463;SDS011;3265;42.694;23.282;2023-02-03T07:29:38;9.90;;;6.77;;
6463;SDS011;3265;42.694;23.282;2023-02-03T07:32:05;11.37;;;7.10;;
6463;SDS011;3265;42.694;23.282;2023-02-03T07:34:32;6.90;;;5.60;;
6463;SDS011;3265;42.694;23.282;2023-02-03T07:36:59;8.37;;;5.97;;
6463;SDS011;3265;42.694;23.282;2023-02-03T07:39:26;6.13;;;4.47;;
6463;SDS011;3265;42.694;23.282;2023-02-03T07:41:53;7.43;;;5.30;;
6463;SDS011;3265;42.694;23.282;2023-02-03T07:44:21;8.60;;;5.90;;
6463;SDS011;3265;42.694;23.282;2023-02-03T07:46:48;7.57;;;5.17;;
6463;SDS011;3265;42.694;23.282;2023-02-03T07:49:14;6.73;;;3.80;;
6463;SDS011;3265;42.694;23.282;2023-02-03T07:51:41;7.63;;;5.33;;
6463;SDS011;3265;42.694;23.282;2023-02-03T07:54:09;7.43;;;4.60;;
6463;SDS011;3265;42.694;23.282;2023-02-03T07:56:35;6.20;;;4.40;;
6463;SDS011;3265;42.694;23.282;2023-02-03T07:59:02;4.33;;;3.60;;
6463;SDS011;3265;42.694;23.282;2023-02-03T08:01:30;10.33;;;5.27;;
6463;SDS011;3265;42.694;23.282;2023-02-03T08:03:58;11.37;;;5.50;;
6463;SDS011;3265;42.694;23.282;2023-02-03T08:06:26;5.90;;;3.90;;
6463;SDS011;3265;42.694;23.282;2023-02-03T08:08:54;6.90;;;3.70;;
6463;SDS011;3265;42.694;23.282;2023-02-03T08:11:21;6.60;;;4.47;;
6463;SDS011;3265;42.694;23.282;2023-02-03T08:13:48;7.17;;;4.20;;
6463;SDS011;3265;42.694;23.282;2023-02-03T08:16:15;6.47;;;4.10;;
6463;SDS011;3265;42.694;23.282;2023-02-03T08:18:43;7.97;;;4.30;;
6463;SDS011;3265;42.694;23.282;2023-02-03T08:21:10;9.80;;;4.70;;
6463;SDS011;3265;42.694;23.282;2023-02-03T08:23:36;9.20;;;5.23;;
6463;SDS011;3265;42.694;23.282;2023-02-03T08:26:03;5.10;;;4.00;;
6463;SDS011;3265;42.694;23.282;2023-02-03T08:28:30;5.87;;;4.20;;
6463;SDS011;3265;42.694;23.282;2023-02-03T08:30:57;4.43;;;3.53;;
6463;SDS011;3265;42.694;23.282;2023-02-03T08:33:24;7.37;;;4.40;;
6463;SDS011;3265;42.694;23.282;2023-02-03T08:35:53;7.73;;;3.50;;
6463;SDS011;3265;42.694;23.282;2023-02-03T08:38:20;9.77;;;3.67;;
6463;SDS011;3265;42.694;23.282;2023-02-03T08:40:47;5.30;;;3.50;;
6463;SDS011;3265;42.694;23.282;2023-02-03T08:43:14;5.07;;;3.83;;
6463;SDS011;3265;42.694;23.282;2023-02-03T08:45:41;8.63;;;5.07;;
6463;SDS011;3265;42.694;23.282;2023-02-03T08:48:07;7.03;;;4.40;;
6463;SDS011;3265;42.694;23.282;2023-02-03T08:50:34;10.43;;;4.43;;
6463;SDS011;3265;42.694;23.282;2023-02-03T08:53:02;7.20;;;4.00;;
6463;SDS011;3265;42.694;23.282;2023-02-03T08:55:29;13.60;;;5.70;;
6463;SDS011;3265;42.694;23.282;2023-02-03T08:57:56;13.80;;;5.80;;
6463;SDS011;3265;42.694;23.282;2023-02-03T09:00:22;6.23;;;3.63;;
6463;SDS011;3265;42.694;23.282;2023-02-03T09:02:50;8.90;;;4.60;;
6463;SDS011;3265;42.694;23.282;2023-02-03T09:05:17;12.67;;;4.70;;
6463;SDS011;3265;42.694;23.282;2023-02-03T09:07:44;6.00;;;4.20;;
6463;SDS011;3265;42.694;23.282;2023-02-03T09:10:12;5.17;;;3.60;;
6463;SDS011;3265;42.694;23.282;2023-02-03T09:12:39;7.83;;;3.80;;
6463;SDS011;3265;42.694;23.282;2023-02-03T09:15:06;8.23;;;4.60;;
6463;SDS011;3265;42.694;23.282;2023-02-03T09:17:33;5.67;;;3.80;;
6463;SDS011;3265;42.694;23.282;2023-02-03T09:20:00;5.17;;;3.40;;
6463;SDS011;3265;42.694;23.282;2023-02-03T09:22:27;4.87;;;3.90;;
6463;SDS011;3265;42.694;23.282;2023-02-03T09:24:53;4.87;;;3.80;;
6463;SDS011;3265;42.694;23.282;2023-02-03T09:27:22;4.10;;;3.40;;
6463;SDS011;3265;42.694;23.282;2023-02-03T09:29:49;4.63;;;3.47;;
6463;SDS011;3265;42.694;23.282;2023-02-03T09:32:15;7.70;;;4.53;;
6463;SDS011;3265;42.694;23.282;2023-02-03T09:34:42;5.87;;;4.20;;
6463;SDS011;3265;42.694;23.282;2023-02-03T09:37:09;7.73;;;4.60;;
6463;SDS011;3265;42.694;23.282;2023-02-03T09:39:36;6.87;;;3.70;;
6463;SDS011;3265;42.694;23.282;2023-02-03T09:42:08;5.10;;;3.07;;
6463;SDS011;3265;42.694;23.282;2023-02-03T09:44:56;6.53;;;3.70;;
6463;SDS011;3265;42.694;23.282;2023-02-03T09:47:33;9.90;;;3.37;;
6463;SDS011;3265;42.694;23.282;2023-02-03T09:50:03;3.60;;;2.70;;
6463;SDS011;3265;42.694;23.282;2023-02-03T09:52:36;4.30;;;2.90;;
6463;SDS011;3265;42.694;23.282;2023-02-03T09:55:06;6.97;;;4.27;;
6463;SDS011;3265;42.694;23.282;2023-02-03T09:57:46;7.80;;;4.43;;
6463;SDS011;3265;42.694;23.282;2023-02-03T10:00:21;5.80;;;3.80;;
6463;SDS011;3265;42.694;23.282;2023-02-03T10:02:54;6.07;;;3.43;;
6463;SDS011;3265;42.694;23.282;2023-02-03T10:05:24;3.43;;;2.47;;
6463;SDS011;3265;42.694;23.282;2023-02-03T10:08:04;5.30;;;4.03;;
6463;SDS011;3265;42.694;23.282;2023-02-03T10:10:40;7.17;;;3.90;;
6463;SDS011;3265;42.694;23.282;2023-02-03T10:16:15;4.13;;;3.30;;
6463;SDS011;3265;42.694;23.282;2023-02-03T10:18:55;4.27;;;2.90;;
6463;SDS011;3265;42.694;23.282;2023-02-03T10:21:29;6.57;;;3.20;;
6463;SDS011;3265;42.694;23.282;2023-02-03T10:24:00;6.43;;;2.93;;
6463;SDS011;3265;42.694;23.282;2023-02-03T10:26:31;4.13;;;3.00;;
6463;SDS011;3265;42.694;23.282;2023-02-03T10:29:01;12.10;;;4.40;;
6463;SDS011;3265;42.694;23.282;2023-02-03T10:31:32;7.80;;;4.03;;
6463;SDS011;3265;42.694;23.282;2023-02-03T10:34:07;4.80;;;3.10;;
6463;SDS011;3265;42.694;23.282;2023-02-03T10:36:44;7.13;;;4.20;;
6463;SDS011;3265;42.694;23.282;2023-02-03T10:39:26;7.70;;;4.37;;
6463;SDS011;3265;42.694;23.282;2023-02-03T10:41:56;7.80;;;4.13;;
6463;SDS011;3265;42.694;23.282;2023-02-03T10:44:28;6.57;;;4.20;;
6463;SDS011;3265;42.694;23.282;2023-02-03T10:47:00;7.00;;;4.13;;
6463;SDS011;3265;42.694;23.282;2023-02-03T10:49:27;8.37;;;4.90;;
6463;SDS011;3265;42.694;23.282;2023-02-03T10:51:56;8.50;;;5.67;;
6463;SDS011;3265;42.694;23.282;2023-02-03T10:54:27;7.07;;;4.97;;
6463;SDS011;3265;42.694;23.282;2023-02-03T10:56:57;7.80;;;5.00;;
6463;SDS011;3265;42.694;23.282;2023-02-03T10:59:30;7.73;;;4.50;;
6463;SDS011;3265;42.694;23.282;2023-02-03T11:02:05;5.43;;;3.93;;
6463;SDS011;3265;42.694;23.282;2023-02-03T11:04:34;9.23;;;5.00;;
6463;SDS011;3265;42.694;23.282;2023-02-03T11:07:02;7.20;;;4.17;;
6463;SDS011;3265;42.694;23.282;2023-02-03T11:09:32;6.50;;;4.67;;
6463;SDS011;3265;42.694;23.282;2023-02-03T11:12:05;9.47;;;3.97;;
6463;SDS011;3265;42.694;23.282;2023-02-03T11:14:48;8.73;;;4.40;;
6463;SDS011;3265;42.694;23.282;2023-02-03T11:17:16;7.57;;;4.60;;
6463;SDS011;3265;42.694;23.282;2023-02-03T11:19:47;7.20;;;4.27;;
6463;SDS011;3265;42.694;23.282;2023-02-03T11:22:25;7.67;;;4.27;;
6463;SDS011;3265;42.694;23.282;2023-02-03T11:24:54;7.67;;;4.70;;
6463;SDS011;3265;42.694;23.282;2023-02-03T11:27:21;6.17;;;3.40;;
6463;SDS011;3265;42.694;23.282;2023-02-03T11:29:51;6.33;;;4.40;;
6463;SDS011;3265;42.694;23.282;2023-02-03T11:32:33;9.37;;;4.90;;
6463;SDS011;3265;42.694;23.282;2023-02-03T11:35:02;8.00;;;4.57;;
6463;SDS011;3265;42.694;23.282;2023-02-03T11:37:41;7.80;;;3.60;;
6463;SDS011;3265;42.694;23.282;2023-02-03T11:40:24;9.87;;;5.30;;
6463;SDS011;3265;42.694;23.282;2023-02-03T11:43:00;10.13;;;4.80;;
6463;SDS011;3265;42.694;23.282;2023-02-03T11:45:32;6.93;;;3.50;;
6463;SDS011;3265;42.694;23.282;2023-02-03T11:48:12;4.77;;;3.33;;
6463;SDS011;3265;42.694;23.282;2023-02-03T11:50:44;6.13;;;3.93;;
6463;SDS011;3265;42.694;23.282;2023-02-03T11:53:21;9.07;;;4.63;;
6463;SDS011;3265;42.694;23.282;2023-02-03T11:58:54;5.27;;;3.70;;
6463;SDS011;3265;42.694;23.282;2023-02-03T12:01:51;7.17;;;4.30;;
6463;SDS011;3265;42.694;23.282;2023-02-03T12:04:53;3.60;;;2.60;;
6463;SDS011;3265;42.694;23.282;2023-02-03T12:07:50;7.50;;;4.60;;
6463;SDS011;3265;42.694;23.282;2023-02-03T12:10:32;7.37;;;3.80;;
6463;SDS011;3265;42.694;23.282;2023-02-03T12:13:14;7.07;;;4.37;;
6463;SDS011;3265;42.694;23.282;2023-02-03T12:16:08;6.67;;;4.10;;
6463;SDS011;3265;42.694;23.282;2023-02-03T12:18:51;3.20;;;2.47;;
6463;SDS011;3265;42.694;23.282;2023-02-03T12:21:41;6.90;;;3.30;;
6463;SDS011;3265;42.694;23.282;2023-02-03T12:24:13;4.23;;;3.00;;
6463;SDS011;3265;42.694;23.282;2023-02-03T12:26:52;3.97;;;2.73;;
6463;SDS011;3265;42.694;23.282;2023-02-03T12:29:26;2.80;;;2.50;;
6463;SDS011;3265;42.694;23.282;2023-02-03T12:32:03;3.70;;;2.50;;
6463;SDS011;3265;42.694;23.282;2023-02-03T12:34:39;5.93;;;3.40;;
6463;SDS011;3265;42.694;23.282;2023-02-03T12:37:15;4.93;;;2.70;;
6463;SDS011;3265;42.694;23.282;2023-02-03T12:39:46;7.73;;;3.80;;
6463;SDS011;3265;42.694;23.282;2023-02-03T12:42:17;5.53;;;3.20;;
6463;SDS011;3265;42.694;23.282;2023-02-03T12:44:49;6.93;;;4.37;;
6463;SDS011;3265;42.694;23.282;2023-02-03T12:47:22;5.43;;;3.47;;
6463;SDS011;3265;42.694;23.282;2023-02-03T12:49:55;5.97;;;3.13;;
6463;SDS011;3265;42.694;23.282;2023-02-03T12:52:25;10.37;;;3.40;;
6463;SDS011;3265;42.694;23.282;2023-02-03T12:55:00;8.07;;;4.00;;
6463;SDS011;3265;42.694;23.282;2023-02-03T12:57:35;5.73;;;4.20;;
6463;SDS011;3265;42.694;23.282;2023-02-03T13:00:12;7.97;;;4.97;;
6463;SDS011;3265;42.694;23.282;2023-02-03T13:02:50;7.30;;;4.40;;
6463;SDS011;3265;42.694;23.282;2023-02-03T13:05:27;6.13;;;4.20;;
6463;SDS011;3265;42.694;23.282;2023-02-03T13:08:05;7.70;;;4.47;;
6463;SDS011;3265;42.694;23.282;2023-02-03T13:10:40;7.23;;;4.60;;
6463;SDS011;3265;42.694;23.282;2023-02-03T13:13:14;6.40;;;4.80;;
6463;SDS011;3265;42.694;23.282;2023-02-03T13:15:46;7.97;;;4.20;;
6463;SDS011;3265;42.694;23.282;2023-02-03T13:18:19;6.33;;;4.53;;
6463;SDS011;3265;42.694;23.282;2023-02-03T13:20:53;8.17;;;4.73;;
6463;SDS011;3265;42.694;23.282;2023-02-03T13:23:21;8.07;;;4.47;;
6463;SDS011;3265;42.694;23.282;2023-02-03T13:25:53;8.43;;;4.80;;
6463;SDS011;3265;42.694;23.282;2023-02-03T13:28:33;10.67;;;5.60;;
6463;SDS011;3265;42.694;23.282;2023-02-03T13:31:17;11.50;;;5.70;;
6463;SDS011;3265;42.694;23.282;2023-02-03T13:33:58;7.50;;;4.70;;
6463;SDS011;3265;42.694;23.282;2023-02-03T13:36:40;9.17;;;4.20;;
6463;SDS011;3265;42.694;23.282;2023-02-03T13:42:18;8.87;;;5.03;;
6463;SDS011;3265;42.694;23.282;2023-02-03T13:44:49;9.67;;;5.37;;
6463;SDS011;3265;42.694;23.282;2023-02-03T13:47:23;12.70;;;5.63;;
6463;SDS011;3265;42.694;23.282;2023-02-03T13:49:54;10.93;;;5.13;;
6463;SDS011;3265;42.694;23.282;2023-02-03T13:52:27;10.57;;;6.00;;
6463;SDS011;3265;42.694;23.282;2023-02-03T13:54:59;12.60;;;6.00;;
6463;SDS011;3265;42.694;23.282;2023-02-03T13:57:28;13.13;;;7.30;;
6463;SDS011;3265;42.694;23.282;2023-02-03T13:59:59;13.07;;;7.20;;
6463;SDS011;3265;42.694;23.282;2023-02-03T14:11:38;9.27;;;5.77;;
6463;SDS011;3265;42.694;23.282;2023-02-03T14:26:33;16.43;;;9.13;;
6463;SDS011;3265;42.694;23.282;2023-02-03T14:29:06;15.23;;;9.07;;
6463;SDS011;3265;42.694;23.282;2023-02-03T14:31:50;11.53;;;6.97;;
6463;SDS011;3265;42.694;23.282;2023-02-03T14:34:34;15.97;;;9.60;;
6463;SDS011;3265;42.694;23.282;2023-02-03T14:37:09;12.80;;;6.87;;
6463;SDS011;3265;42.694;23.282;2023-02-03T14:42:42;13.03;;;6.70;;
6463;SDS011;3265;42.694;23.282;2023-02-03T14:45:30;16.47;;;7.77;;
6463;SDS011;3265;42.694;23.282;2023-02-03T14:48:19;10.57;;;6.57;;
6463;SDS011;3265;42.694;23.282;2023-02-03T14:51:02;13.50;;;7.40;;
6463;SDS011;3265;42.694;23.282;2023-02-03T14:53:43;12.97;;;6.90;;
6463;SDS011;3265;42.694;23.282;2023-02-03T14:56:24;14.23;;;7.23;;
6463;SDS011;3265;42.694;23.282;2023-02-03T14:59:19;13.23;;;6.87;;
6463;SDS011;3265;42.694;23.282;2023-02-03T15:02:11;15.27;;;8.53;;
6463;SDS011;3265;42.694;23.282;2023-02-03T15:04:40;11.20;;;6.33;;
6463;SDS011;3265;42.694;23.282;2023-02-03T15:07:07;14.73;;;7.70;;
6463;SDS011;3265;42.694;23.282;2023-02-03T15:09:36;21.27;;;11.60;;
6463;SDS011;3265;42.694;23.282;2023-02-03T15:12:15;30.17;;;15.23;;
6463;SDS011;3265;42.694;23.282;2023-02-03T15:14:42;34.97;;;17.23;;
6463;SDS011;3265;42.694;23.282;2023-02-03T15:17:12;35.20;;;16.63;;
6463;SDS011;3265;42.694;23.282;2023-02-03T15:19:46;34.70;;;17.10;;
6463;SDS011;3265;42.694;23.282;2023-02-03T15:22:16;32.43;;;15.47;;
6463;SDS011;3265;42.694;23.282;2023-02-03T15:24:44;32.30;;;14.70;;
6463;SDS011;3265;42.694;23.282;2023-02-03T15:27:18;32.77;;;16.87;;
6463;SDS011;3265;42.694;23.282;2023-02-03T15:29:47;29.07;;;14.43;;
6463;SDS011;3265;42.694;23.282;2023-02-03T15:32:16;33.17;;;16.97;;
6463;SDS011;3265;42.694;23.282;2023-02-03T15:34:49;35.33;;;16.57;;
6463;SDS011;3265;42.694;23.282;2023-02-03T15:37:19;27.87;;;13.67;;
6463;SDS011;3265;42.694;23.282;2023-02-03T15:39:52;36.73;;;16.50;;
6463;SDS011;3265;42.694;23.282;2023-02-03T15:42:27;32.07;;;16.10;;
6463;SDS011;3265;42.694;23.282;2023-02-03T15:44:59;28.23;;;14.33;;
6463;SDS011;3265;42.694;23.282;2023-02-03T15:47:36;28.23;;;14.83;;
6463;SDS011;3265;42.694;23.282;2023-02-03T15:50:14;28.77;;;13.47;;
6463;SDS011;3265;42.694;23.282;2023-02-03T15:52:50;21.77;;;11.97;;
6463;SDS011;3265;42.694;23.282;2023-02-03T15:55:23;26.53;;;14.77;;
6463;SDS011;3265;42.694;23.282;2023-02-03T15:57:55;30.73;;;15.43;;
6463;SDS011;3265;42.694;23.282;2023-02-03T16:00:26;36.07;;;15.97;;